createdAt,value
2017-12-14T00:00:35.460Z,1.58
2017-12-14T00:01:35.743Z,1.58
2017-12-14T00:02:35.429Z,1.56
2017-12-14T00:03:35.420Z,1.61
2017-12-14T00:04:35.417Z,1.64
2017-12-14T00:05:35.934Z,1.58
2017-12-14T00:06:35.367Z,1.58
2017-12-14T00:07:35.340Z,1.64
2017-12-14T00:08:35.592Z,1.54
2017-12-14T00:09:35.581Z,1.56
2017-12-14T00:10:35.561Z,1.64
2017-12-14T00:11:35.267Z,1.68
2017-12-14T00:12:35.253Z,1.56
2017-12-14T00:13:35.234Z,1.69
2017-12-14T00:14:35.491Z,1.69
2017-12-14T00:15:35.755Z,1.75
2017-12-14T00:16:35.187Z,1.72
2017-12-14T00:17:35.170Z,1.75
2017-12-14T00:18:35.151Z,1.71
2017-12-14T00:19:35.149Z,1.74
2017-12-14T00:20:35.384Z,1.69
2017-12-14T00:21:35.098Z,1.72
2017-12-14T00:22:35.082Z,1.83
2017-12-14T00:23:35.335Z,1.74
2017-12-14T00:24:35.357Z,1.76
2017-12-14T00:25:35.306Z,1.76
2017-12-14T00:26:35.007Z,1.66
2017-12-14T00:27:34.996Z,1.68
2017-12-14T00:28:35.252Z,1.6
2017-12-14T00:29:34.957Z,1.69
2017-12-14T00:30:35.215Z,1.68
2017-12-14T00:31:35.199Z,1.68
2017-12-14T00:32:35.192Z,1.66
2017-12-14T00:33:35.194Z,1.61
2017-12-14T00:34:35.167Z,1.61
2017-12-14T00:35:35.130Z,1.64
2017-12-14T00:36:34.835Z,1.65
2017-12-14T00:37:34.837Z,1.56
2017-12-14T00:38:35.077Z,1.56
2017-12-14T00:39:34.779Z,1.56
2017-12-14T00:40:35.308Z,1.56
2017-12-14T00:41:34.761Z,1.57
2017-12-14T00:42:35.004Z,1.5
2017-12-14T00:43:34.729Z,1.47
2017-12-14T00:44:34.970Z,1.54
2017-12-14T00:45:34.681Z,1.5
2017-12-14T00:46:34.660Z,1.44
2017-12-14T00:47:34.652Z,1.57
2017-12-14T00:48:34.627Z,1.48
2017-12-14T00:49:34.610Z,1.53
2017-12-14T00:50:34.885Z,1.5
2017-12-14T00:51:34.574Z,1.53
2017-12-14T00:52:34.557Z,1.5
2017-12-14T00:53:34.807Z,1.58
2017-12-14T00:54:34.523Z,1.57
2017-12-14T00:55:34.505Z,1.58
2017-12-14T00:56:34.517Z,1.57
2017-12-14T00:57:34.743Z,1.58
2017-12-14T00:58:34.461Z,1.64
2017-12-14T00:59:34.438Z,1.57
2017-12-14T01:00:34.423Z,1.56
2017-12-14T01:01:34.404Z,1.66
2017-12-14T01:02:34.662Z,1.71
2017-12-14T01:03:34.925Z,1.6
2017-12-14T01:04:34.891Z,1.61
2017-12-14T01:05:34.622Z,1.6
2017-12-14T01:06:34.326Z,1.6
2017-12-14T01:07:34.844Z,1.68
2017-12-14T01:08:34.847Z,1.66
2017-12-14T01:09:34.538Z,1.68
2017-12-14T01:10:34.551Z,1.66
2017-12-14T01:11:34.541Z,1.56
2017-12-14T01:12:34.484Z,1.64
2017-12-14T01:13:34.471Z,1.57
2017-12-14T01:14:34.176Z,1.54
2017-12-14T01:15:34.455Z,1.57
2017-12-14T01:16:34.420Z,1.53
2017-12-14T01:17:34.136Z,1.53
2017-12-14T01:18:34.396Z,1.54
2017-12-14T01:19:34.090Z,1.6
2017-12-14T01:20:34.351Z,1.61
2017-12-14T01:21:34.329Z,1.64
2017-12-14T01:22:34.035Z,1.6
2017-12-14T01:23:34.023Z,1.6
2017-12-14T01:24:34.273Z,1.68
2017-12-14T01:25:33.984Z,1.66
2017-12-14T01:26:33.964Z,1.61
2017-12-14T01:27:34.224Z,1.68
2017-12-14T01:28:34.210Z,1.68
2017-12-14T01:29:34.198Z,1.57
2017-12-14T01:30:34.446Z,1.6
2017-12-14T01:31:33.897Z,1.64
2017-12-14T01:32:33.865Z,1.71
2017-12-14T01:33:34.120Z,1.71
2017-12-14T01:34:33.831Z,1.68
2017-12-14T01:35:34.081Z,1.71
2017-12-14T01:36:34.348Z,1.75
2017-12-14T01:37:34.322Z,1.74
2017-12-14T01:38:34.302Z,1.74
2017-12-14T01:39:33.753Z,1.71
2017-12-14T01:40:33.720Z,1.69
2017-12-14T01:41:33.710Z,1.83
2017-12-14T01:42:33.686Z,1.69
2017-12-14T01:43:33.944Z,1.72
2017-12-14T01:44:33.681Z,1.74
2017-12-14T01:45:34.187Z,1.86
2017-12-14T01:46:33.891Z,1.9
2017-12-14T01:47:34.146Z,1.82
2017-12-14T01:48:33.590Z,1.87
2017-12-14T01:49:34.120Z,1.84
2017-12-14T01:50:33.568Z,1.84
2017-12-14T01:51:33.819Z,1.87
2017-12-14T01:52:33.515Z,1.87
2017-12-14T01:53:33.514Z,1.84
2017-12-14T01:54:33.489Z,1.84
2017-12-14T01:55:33.744Z,1.84
2017-12-14T01:56:33.724Z,2.04
2017-12-14T01:57:33.439Z,1.83
2017-12-14T01:58:33.412Z,1.94
2017-12-14T01:59:33.666Z,1.92
2017-12-14T02:00:33.399Z,2.02
2017-12-14T02:01:33.366Z,1.92
2017-12-14T02:02:33.364Z,1.98
2017-12-14T02:03:33.325Z,1.94
2017-12-14T02:04:33.304Z,1.93
2017-12-14T02:05:33.571Z,1.97
2017-12-14T02:06:33.554Z,2.04
2017-12-14T02:07:33.547Z,1.93
2017-12-14T02:08:33.513Z,1.89
2017-12-14T02:09:33.761Z,1.94
2017-12-14T02:10:33.200Z,1.92
2017-12-14T02:11:33.449Z,1.94
2017-12-14T02:12:33.710Z,1.92
2017-12-14T02:13:33.479Z,2.01
2017-12-14T02:14:33.677Z,1.9
2017-12-14T02:15:33.112Z,1.94
2017-12-14T02:16:33.371Z,1.94
2017-12-14T02:17:33.087Z,1.97
2017-12-14T02:18:33.332Z,1.93
2017-12-14T02:19:33.331Z,1.97
2017-12-14T02:20:33.024Z,1.98
2017-12-14T02:21:33.279Z,2.04
2017-12-14T02:22:33.541Z,2.08
2017-12-14T02:23:32.981Z,2.12
2017-12-14T02:24:33.228Z,2.09
2017-12-14T02:25:32.941Z,1.98
2017-12-14T02:26:33.198Z,2.02
2017-12-14T02:27:33.177Z,2.09
2017-12-14T02:28:32.888Z,2.04
2017-12-14T02:29:32.887Z,2.09
2017-12-14T02:30:32.859Z,2.01
2017-12-14T02:31:32.841Z,2.04
2017-12-14T02:32:33.090Z,2.08
2017-12-14T02:33:32.802Z,2.04
2017-12-14T02:34:33.336Z,2.06
2017-12-14T02:35:33.326Z,2.15
2017-12-14T02:36:33.025Z,2.12
2017-12-14T02:37:32.736Z,2.08
2017-12-14T02:38:33.012Z,2.08
2017-12-14T02:39:32.701Z,2.11
2017-12-14T02:40:33.225Z,2.08
2017-12-14T02:41:32.944Z,2.15
2017-12-14T02:42:32.685Z,2.13
2017-12-14T02:43:32.650Z,2.23
2017-12-14T02:44:32.890Z,2.16
2017-12-14T02:45:32.872Z,2.24
2017-12-14T02:46:32.577Z,2.22
2017-12-14T02:47:32.579Z,2.29
2017-12-14T02:48:32.557Z,2.38
2017-12-14T02:49:32.806Z,2.4
2017-12-14T02:50:32.783Z,2.31
2017-12-14T02:51:32.782Z,2.36
2017-12-14T02:52:32.746Z,2.34
2017-12-14T02:53:32.464Z,2.34
2017-12-14T02:54:33.062Z,2.31
2017-12-14T02:55:32.698Z,2.34
2017-12-14T02:56:32.689Z,2.44
2017-12-14T02:57:32.406Z,2.31
2017-12-14T02:58:32.643Z,2.44
2017-12-14T02:59:32.912Z,2.38
2017-12-14T03:00:32.353Z,2.27
2017-12-14T03:01:32.870Z,2.4
2017-12-14T03:02:32.600Z,2.38
2017-12-14T03:03:32.298Z,2.42
2017-12-14T03:04:32.542Z,2.34
2017-12-14T03:05:32.256Z,2.36
2017-12-14T03:06:32.533Z,2.31
2017-12-14T03:07:32.495Z,2.29
2017-12-14T03:08:32.489Z,2.33
2017-12-14T03:09:32.484Z,2.3
2017-12-14T03:10:32.207Z,2.33
2017-12-14T03:11:32.428Z,2.3
2017-12-14T03:12:32.434Z,2.33
2017-12-14T03:13:32.389Z,2.29
2017-12-14T03:14:32.374Z,2.29
2017-12-14T03:15:32.086Z,2.23
2017-12-14T03:16:32.080Z,2.18
2017-12-14T03:17:32.076Z,2.24
2017-12-14T03:18:32.046Z,2.18
2017-12-14T03:19:32.017Z,2.2
2017-12-14T03:20:32.005Z,2.2
2017-12-14T03:21:31.997Z,2.24
2017-12-14T03:22:32.248Z,2.2
2017-12-14T03:23:31.956Z,2.2
2017-12-14T03:24:31.956Z,2.24
2017-12-14T03:25:32.203Z,2.2
2017-12-14T03:26:32.168Z,2.23
2017-12-14T03:27:31.885Z,2.18
2017-12-14T03:28:32.156Z,2.26
2017-12-14T03:29:32.121Z,2.15
2017-12-14T03:30:32.122Z,2.23
2017-12-14T03:31:32.088Z,2.23
2017-12-14T03:32:31.801Z,2.15
2017-12-14T03:33:32.071Z,2.27
2017-12-14T03:34:31.768Z,2.3
2017-12-14T03:35:31.746Z,2.33
2017-12-14T03:36:31.733Z,2.31
2017-12-14T03:37:31.728Z,2.33
2017-12-14T03:38:31.766Z,2.3
2017-12-14T03:39:32.480Z,2.41
2017-12-14T03:40:31.666Z,2.4
2017-12-14T03:41:31.933Z,2.41
2017-12-14T03:42:46.702Z,2.34
2017-12-14T03:43:32.161Z,2.49
2017-12-14T03:44:31.867Z,2.44
2017-12-14T03:45:31.577Z,2.38
2017-12-14T03:46:31.849Z,2.45
2017-12-14T03:47:31.820Z,2.48
2017-12-14T03:48:31.549Z,2.44
2017-12-14T03:49:31.847Z,2.49
2017-12-14T03:50:31.498Z,2.45
2017-12-14T03:51:31.478Z,2.51
2017-12-14T03:52:31.733Z,2.49
2017-12-14T03:53:31.722Z,2.49
2017-12-14T03:54:31.427Z,2.54
2017-12-14T03:55:31.693Z,2.47
2017-12-14T03:56:31.406Z,2.42
2017-12-14T03:57:31.380Z,2.38
2017-12-14T03:58:31.365Z,2.48
2017-12-14T03:59:31.614Z,2.45
2017-12-14T04:00:31.600Z,2.51
2017-12-14T04:01:31.318Z,2.55
2017-12-14T04:02:31.291Z,2.54
2017-12-14T04:03:31.824Z,2.59
2017-12-14T04:04:31.532Z,2.55
2017-12-14T04:05:31.512Z,2.55
2017-12-14T04:06:31.990Z,2.54
2017-12-14T04:07:31.748Z,2.6
2017-12-14T04:08:31.188Z,2.52
2017-12-14T04:09:31.446Z,2.62
2017-12-14T04:10:31.451Z,2.52
2017-12-14T04:11:31.423Z,2.54
2017-12-14T04:12:31.392Z,2.65
2017-12-14T04:13:31.656Z,2.69
2017-12-14T04:14:31.093Z,2.65
2017-12-14T04:15:31.348Z,2.65
2017-12-14T04:16:31.329Z,2.59
2017-12-14T04:17:31.322Z,2.69
2017-12-14T04:18:31.338Z,2.65
2017-12-14T04:19:31.006Z,2.67
2017-12-14T04:20:31.603Z,2.66
2017-12-14T04:21:30.993Z,2.63
2017-12-14T04:22:31.247Z,2.69
2017-12-14T04:23:30.944Z,2.65
2017-12-14T04:24:31.214Z,2.6
2017-12-14T04:25:31.175Z,2.6
2017-12-14T04:26:31.162Z,2.54
2017-12-14T04:27:30.895Z,2.55
2017-12-14T04:28:30.864Z,2.55
2017-12-14T04:29:30.841Z,2.55
2017-12-14T04:30:31.116Z,2.58
2017-12-14T04:31:30.824Z,2.55
2017-12-14T04:32:31.064Z,2.45
2017-12-14T04:33:31.332Z,2.48
2017-12-14T04:34:30.758Z,2.48
2017-12-14T04:35:31.153Z,2.47
2017-12-14T04:36:30.729Z,2.45
2017-12-14T04:37:31.001Z,2.48
2017-12-14T04:38:30.973Z,2.45
2017-12-14T04:39:30.955Z,2.48
2017-12-14T04:40:30.941Z,2.48
2017-12-14T04:41:30.915Z,2.44
2017-12-14T04:42:30.643Z,2.51
2017-12-14T04:43:30.886Z,2.45
2017-12-14T04:44:30.864Z,2.44
2017-12-14T04:45:30.846Z,2.44
2017-12-14T04:46:30.836Z,2.34
2017-12-14T04:47:30.543Z,2.29
2017-12-14T04:48:30.529Z,2.24
2017-12-14T04:49:30.790Z,2.23
2017-12-14T04:50:30.490Z,2.16
2017-12-14T04:51:30.492Z,2.11
2017-12-14T04:52:30.750Z,2.05
2017-12-14T04:53:30.442Z,2.05
2017-12-14T04:54:30.423Z,2.05
2017-12-14T04:55:30.697Z,2.06
2017-12-14T04:56:30.392Z,2.06
2017-12-14T04:57:30.643Z,2.08
2017-12-14T04:58:30.359Z,2.12
2017-12-14T04:59:30.346Z,2.22
2017-12-14T05:00:30.598Z,2.22
2017-12-14T05:01:30.307Z,2.2
2017-12-14T05:02:30.291Z,2.29
2017-12-14T05:03:30.277Z,2.34
2017-12-14T05:04:30.558Z,2.36
2017-12-14T05:05:30.242Z,2.38
2017-12-14T05:06:30.762Z,2.41
2017-12-14T05:07:30.207Z,2.34
2017-12-14T05:08:30.729Z,2.51
2017-12-14T05:09:30.715Z,2.36
2017-12-14T05:10:30.154Z,2.59
2017-12-14T05:11:30.141Z,2.51
2017-12-14T05:12:30.729Z,2.58
2017-12-14T05:13:30.103Z,2.52
2017-12-14T05:14:30.362Z,2.58
2017-12-14T05:15:30.618Z,2.55
2017-12-14T05:16:30.328Z,2.59
2017-12-14T05:17:30.580Z,2.54
2017-12-14T05:18:30.295Z,2.52
2017-12-14T05:19:30.289Z,2.55
2017-12-14T05:20:30.268Z,2.52
2017-12-14T05:21:29.974Z,2.62
2017-12-14T05:22:29.968Z,2.52
2017-12-14T05:23:29.938Z,2.54
2017-12-14T05:24:30.207Z,2.54
2017-12-14T05:25:30.174Z,2.54
2017-12-14T05:26:30.159Z,2.54
2017-12-14T05:27:29.872Z,2.63
2017-12-14T05:28:30.120Z,2.49
2017-12-14T05:29:30.381Z,2.55
2017-12-14T05:30:30.363Z,2.55
2017-12-14T05:31:29.816Z,2.65
2017-12-14T05:32:30.063Z,2.55
2017-12-14T05:33:30.039Z,2.52
2017-12-14T05:34:30.049Z,2.58
2017-12-14T05:35:30.009Z,2.55
2017-12-14T05:36:30.262Z,2.63
2017-12-14T05:37:29.975Z,2.59
2017-12-14T05:38:29.970Z,2.63
2017-12-14T05:39:29.944Z,2.55
2017-12-14T05:40:29.923Z,2.52
2017-12-14T05:41:29.639Z,2.54
2017-12-14T05:42:29.621Z,2.58
2017-12-14T05:43:29.896Z,2.52
2017-12-14T05:44:30.129Z,2.52
2017-12-14T05:45:29.840Z,2.55
2017-12-14T05:46:29.839Z,2.58
2017-12-14T05:47:29.546Z,2.55
2017-12-14T05:48:30.121Z,2.62
2017-12-14T05:49:29.512Z,2.58
2017-12-14T05:50:29.761Z,2.58
2017-12-14T05:51:29.744Z,2.54
2017-12-14T05:52:29.474Z,2.54
2017-12-14T05:53:29.708Z,2.58
2017-12-14T05:54:29.688Z,2.55
2017-12-14T05:55:29.674Z,2.55
2017-12-14T05:56:29.662Z,2.55
2017-12-14T05:57:29.648Z,2.51
2017-12-14T05:58:29.360Z,2.62
2017-12-14T05:59:29.336Z,2.51
2017-12-14T06:00:29.862Z,2.66
2017-12-14T06:01:29.596Z,2.62
2017-12-14T06:02:29.561Z,2.67
2017-12-14T06:03:29.270Z,2.66
2017-12-14T06:04:29.253Z,2.63
2017-12-14T06:05:29.240Z,2.63
2017-12-14T06:06:29.495Z,2.69
2017-12-14T06:07:29.768Z,2.62
2017-12-14T06:08:29.183Z,2.55
2017-12-14T06:09:29.171Z,2.58
2017-12-14T06:10:29.179Z,2.55
2017-12-14T06:11:29.139Z,2.54
2017-12-14T06:12:29.120Z,2.6
2017-12-14T06:13:29.643Z,2.48
2017-12-14T06:14:29.094Z,2.47
2017-12-14T06:15:29.069Z,2.41
2017-12-14T06:16:29.062Z,2.38
2017-12-14T06:17:29.033Z,2.3
2017-12-14T06:18:29.020Z,2.26
2017-12-14T06:19:29.308Z,2.2
2017-12-14T06:20:29.258Z,2.18
2017-12-14T06:21:28.968Z,2.02
2017-12-14T06:22:29.226Z,2.04
2017-12-14T06:23:29.486Z,1.93
2017-12-14T06:24:29.187Z,1.87
2017-12-14T06:25:29.170Z,1.87
2017-12-14T06:26:28.886Z,1.84
2017-12-14T06:27:29.138Z,1.75
2017-12-14T06:28:28.873Z,1.71
2017-12-14T06:29:29.100Z,1.74
2017-12-14T06:30:28.821Z,1.74
2017-12-14T06:31:29.075Z,1.68
2017-12-14T06:32:29.055Z,1.71
2017-12-14T06:33:28.762Z,1.75
2017-12-14T06:34:28.752Z,1.76
2017-12-14T06:35:28.729Z,1.71
2017-12-14T06:36:28.713Z,1.74
2017-12-14T06:37:28.997Z,1.72
2017-12-14T06:38:28.951Z,1.68
2017-12-14T06:39:28.935Z,1.72
2017-12-14T06:40:28.927Z,1.71
2017-12-14T06:41:28.631Z,1.74
2017-12-14T06:42:29.160Z,1.79
2017-12-14T06:43:28.865Z,1.71
2017-12-14T06:44:28.866Z,1.76
2017-12-14T06:45:28.555Z,1.74
2017-12-14T06:46:28.540Z,1.76
2017-12-14T06:47:28.541Z,1.71
2017-12-14T06:48:28.510Z,1.68
2017-12-14T06:49:28.770Z,1.66
2017-12-14T06:50:28.755Z,1.65
2017-12-14T06:51:28.743Z,1.65
2017-12-14T06:52:28.982Z,1.64
2017-12-14T06:53:28.427Z,1.57
2017-12-14T06:54:28.402Z,1.57
2017-12-14T06:55:28.654Z,1.6
2017-12-14T06:56:28.375Z,1.65
2017-12-14T06:57:28.350Z,1.68
2017-12-14T06:58:28.336Z,1.58
2017-12-14T06:59:28.315Z,1.64
2017-12-14T07:00:28.305Z,1.6
2017-12-14T07:01:28.278Z,1.69
2017-12-14T07:02:28.534Z,1.6
2017-12-14T07:03:28.516Z,1.6
2017-12-14T07:04:28.228Z,1.65
2017-12-14T07:05:28.485Z,1.56
2017-12-14T07:06:28.191Z,1.64
2017-12-14T07:07:28.186Z,1.65
2017-12-14T07:08:28.158Z,1.68
2017-12-14T07:09:28.152Z,1.56
2017-12-14T07:10:28.394Z,1.68
2017-12-14T07:11:28.104Z,1.65
2017-12-14T07:12:28.360Z,1.6
2017-12-14T07:13:28.614Z,1.56
2017-12-14T07:14:28.052Z,1.66
2017-12-14T07:15:28.307Z,1.6
2017-12-14T07:16:28.568Z,1.58
2017-12-14T07:17:28.005Z,1.54
2017-12-14T07:18:27.988Z,1.61
2017-12-14T07:19:28.237Z,1.54
2017-12-14T07:20:27.954Z,1.6
2017-12-14T07:21:28.499Z,1.53
2017-12-14T07:22:28.458Z,1.56
2017-12-14T07:23:28.170Z,1.53
2017-12-14T07:24:27.879Z,1.57
2017-12-14T07:25:28.134Z,1.48
2017-12-14T07:26:28.112Z,1.54
2017-12-14T07:27:27.827Z,1.5
2017-12-14T07:28:28.354Z,1.57
2017-12-14T07:29:27.808Z,1.5
2017-12-14T07:30:27.775Z,1.47
2017-12-14T07:31:28.051Z,1.56
2017-12-14T07:32:28.049Z,1.56
2017-12-14T07:33:27.993Z,1.61
2017-12-14T07:34:27.976Z,1.65
2017-12-14T07:35:27.954Z,1.61
2017-12-14T07:36:27.942Z,1.56
2017-12-14T07:37:27.921Z,1.65
2017-12-14T07:38:27.904Z,1.66
2017-12-14T07:39:27.894Z,1.6
2017-12-14T07:40:27.595Z,1.6
2017-12-14T07:41:27.855Z,1.69
2017-12-14T07:42:27.834Z,1.58
2017-12-14T07:43:27.545Z,1.61
2017-12-14T07:44:27.821Z,1.57
2017-12-14T07:45:27.790Z,1.65
2017-12-14T07:46:27.493Z,1.66
2017-12-14T07:47:27.750Z,1.64
2017-12-14T07:48:27.471Z,1.6
2017-12-14T07:49:27.725Z,1.58
2017-12-14T07:50:27.710Z,1.71
2017-12-14T07:51:27.404Z,1.68
2017-12-14T07:52:27.400Z,1.58
2017-12-14T07:53:27.373Z,1.6
2017-12-14T07:54:27.369Z,1.68
2017-12-14T07:55:27.887Z,1.6
2017-12-14T07:56:27.591Z,1.53
2017-12-14T07:57:27.303Z,1.56
2017-12-14T07:58:27.285Z,1.57
2017-12-14T07:59:27.265Z,1.56
2017-12-14T08:00:27.247Z,1.54
2017-12-14T08:01:27.515Z,1.58
2017-12-14T08:02:27.211Z,1.57
2017-12-14T08:03:27.196Z,1.53
2017-12-14T08:04:27.176Z,1.57
2017-12-14T08:05:27.435Z,1.53
2017-12-14T08:06:27.686Z,1.58
2017-12-14T08:07:27.670Z,1.57
2017-12-14T08:08:27.386Z,1.57
2017-12-14T08:09:27.639Z,1.65
2017-12-14T08:10:27.073Z,1.58
2017-12-14T08:11:27.626Z,1.53
2017-12-14T08:12:27.040Z,1.64
2017-12-14T08:13:27.291Z,1.66
2017-12-14T08:14:27.287Z,1.61
2017-12-14T08:15:26.985Z,1.66
2017-12-14T08:16:27.240Z,1.66
2017-12-14T08:17:26.970Z,1.53
2017-12-14T08:18:26.932Z,1.57
2017-12-14T08:19:27.456Z,1.54
2017-12-14T08:20:26.899Z,1.46
2017-12-14T08:21:27.171Z,1.48
2017-12-14T08:22:27.134Z,1.6
2017-12-14T08:23:26.848Z,1.51
2017-12-14T08:24:27.100Z,1.48
2017-12-14T08:25:26.813Z,1.47
2017-12-14T08:26:26.796Z,1.48
2017-12-14T08:27:26.787Z,1.5
2017-12-14T08:28:26.760Z,1.54
2017-12-14T08:29:27.014Z,1.51
2017-12-14T08:30:27.052Z,1.4
2017-12-14T08:31:27.254Z,1.48
2017-12-14T08:32:26.691Z,1.48
2017-12-14T08:33:27.215Z,1.47
2017-12-14T08:34:26.661Z,1.54
2017-12-14T08:35:26.637Z,1.51
2017-12-14T08:36:26.633Z,1.39
2017-12-14T08:37:26.603Z,1.44
2017-12-14T08:38:26.853Z,1.46
2017-12-14T08:39:26.838Z,1.51
2017-12-14T08:40:26.556Z,1.53
2017-12-14T08:41:26.533Z,1.56
2017-12-14T08:42:26.795Z,1.56
2017-12-14T08:43:26.497Z,1.58
2017-12-14T08:44:26.775Z,1.58
2017-12-14T08:45:26.732Z,1.56
2017-12-14T08:46:26.446Z,1.6
2017-12-14T08:47:26.710Z,1.56
2017-12-14T08:48:26.409Z,1.57
2017-12-14T08:49:26.940Z,1.6
2017-12-14T08:50:26.920Z,1.66
2017-12-14T08:51:26.631Z,1.69
2017-12-14T08:52:26.342Z,1.68
2017-12-14T08:53:26.594Z,1.58
2017-12-14T08:54:26.851Z,1.57
2017-12-14T08:55:26.287Z,1.57
2017-12-14T08:56:26.814Z,1.56
2017-12-14T08:57:26.524Z,1.68
2017-12-14T08:58:26.803Z,1.56
2017-12-14T08:59:26.219Z,1.61
2017-12-14T09:00:26.748Z,1.68
2017-12-14T09:01:26.458Z,1.58
2017-12-14T09:02:26.174Z,1.64
2017-12-14T09:03:26.423Z,1.69
2017-12-14T09:04:26.407Z,1.76
2017-12-14T09:05:26.384Z,1.72
2017-12-14T09:06:26.120Z,1.83
2017-12-14T09:07:26.102Z,1.84
2017-12-14T09:08:26.066Z,2.01
2017-12-14T09:09:26.340Z,1.98
2017-12-14T09:10:26.029Z,1.94
2017-12-14T09:11:26.303Z,1.92
2017-12-14T09:12:26.263Z,1.89
2017-12-14T09:13:26.075Z,1.93
2017-12-14T09:14:26.461Z,1.87
2017-12-14T09:15:25.941Z,1.84
2017-12-14T09:16:26.194Z,1.83
2017-12-14T09:17:26.470Z,1.79
2017-12-14T09:18:26.180Z,1.87
2017-12-14T09:19:25.872Z,1.83
2017-12-14T09:20:26.132Z,1.74
2017-12-14T09:21:26.109Z,1.72
2017-12-14T09:22:25.820Z,1.76
2017-12-14T09:23:26.348Z,1.75
2017-12-14T09:24:25.792Z,1.78
2017-12-14T09:25:26.050Z,1.75
2017-12-14T09:26:25.748Z,1.68
2017-12-14T09:27:26.273Z,1.69
2017-12-14T09:28:26.318Z,1.71
2017-12-14T09:29:25.723Z,1.61
2017-12-14T09:30:26.228Z,1.68
2017-12-14T09:31:25.666Z,1.57
2017-12-14T09:32:25.929Z,1.61
2017-12-14T09:33:25.907Z,1.6
2017-12-14T09:34:26.164Z,1.53
2017-12-14T09:35:25.600Z,1.56
2017-12-14T09:36:25.580Z,1.5
2017-12-14T09:37:25.835Z,1.58
2017-12-14T09:38:25.817Z,1.5
2017-12-14T09:39:25.534Z,1.47
2017-12-14T09:40:26.072Z,1.44
2017-12-14T09:41:25.495Z,1.57
2017-12-14T09:42:26.019Z,1.38
2017-12-14T09:43:25.470Z,1.39
2017-12-14T09:44:25.993Z,1.51
2017-12-14T09:45:25.692Z,1.54
2017-12-14T09:46:25.693Z,1.42
2017-12-14T09:47:25.657Z,1.42
2017-12-14T09:48:25.372Z,1.48
2017-12-14T09:49:25.650Z,1.47
2017-12-14T09:50:25.336Z,1.44
2017-12-14T09:51:25.319Z,1.5
2017-12-14T09:52:25.872Z,1.61
2017-12-14T09:53:25.569Z,1.47
2017-12-14T09:54:25.541Z,1.56
2017-12-14T09:55:25.531Z,1.57
2017-12-14T09:56:25.774Z,1.58
2017-12-14T09:57:25.762Z,1.6
2017-12-14T09:58:25.470Z,1.58
2017-12-14T09:59:25.456Z,1.71
2017-12-14T10:00:25.164Z,1.71
2017-12-14T10:01:25.414Z,1.74
2017-12-14T10:02:25.127Z,1.82
2017-12-14T10:03:25.109Z,1.82
2017-12-14T10:04:25.361Z,1.84
2017-12-14T10:05:25.079Z,1.79
2017-12-14T10:06:25.335Z,1.9
2017-12-14T10:07:25.310Z,1.89
2017-12-14T10:08:25.311Z,1.82
2017-12-14T10:09:25.557Z,1.92
2017-12-14T10:10:24.989Z,2.02
2017-12-14T10:11:25.245Z,1.84
2017-12-14T10:12:24.955Z,1.98
2017-12-14T10:13:25.214Z,1.93
2017-12-14T10:14:24.917Z,2.09
2017-12-14T10:15:24.918Z,2.06
2017-12-14T10:16:25.156Z,2.05
2017-12-14T10:17:25.141Z,2.18
2017-12-14T10:18:25.153Z,2.18
2017-12-14T10:19:25.110Z,2.16
2017-12-14T10:20:25.099Z,2.18
2017-12-14T10:21:25.079Z,2.31
2017-12-14T10:22:25.053Z,2.34
2017-12-14T10:23:25.306Z,2.3
2017-12-14T10:24:25.037Z,2.27
2017-12-14T10:25:24.732Z,2.33
2017-12-14T10:26:24.715Z,2.41
2017-12-14T10:27:24.964Z,2.34
2017-12-14T10:28:24.962Z,2.36
2017-12-14T10:29:24.984Z,2.47
2017-12-14T10:30:24.920Z,2.44
2017-12-14T10:31:25.235Z,2.44
2017-12-14T10:32:25.155Z,2.47
2017-12-14T10:33:24.597Z,2.44
2017-12-14T10:34:24.575Z,2.44
2017-12-14T10:35:25.110Z,2.31
2017-12-14T10:36:24.821Z,2.36
2017-12-14T10:37:24.814Z,2.3
2017-12-14T10:38:24.509Z,2.36
2017-12-14T10:39:24.784Z,2.36
2017-12-14T10:40:24.750Z,2.41
2017-12-14T10:41:24.730Z,2.47
2017-12-14T10:42:24.715Z,2.49
2017-12-14T10:43:24.705Z,2.54
2017-12-14T10:44:24.699Z,2.51
2017-12-14T10:45:24.932Z,2.48
2017-12-14T10:46:24.645Z,2.51
2017-12-14T10:47:24.908Z,2.44
2017-12-14T10:48:24.634Z,2.47
2017-12-14T10:49:24.601Z,2.48
2017-12-14T10:50:24.583Z,2.52
2017-12-14T10:51:24.297Z,2.49
2017-12-14T10:52:24.554Z,2.55
2017-12-14T10:53:24.567Z,2.52
2017-12-14T10:54:24.511Z,2.52
2017-12-14T10:55:24.226Z,2.55
2017-12-14T10:56:24.211Z,2.55
2017-12-14T10:57:24.468Z,2.55
2017-12-14T10:58:24.178Z,2.51
2017-12-14T10:59:24.159Z,2.58
2017-12-14T11:00:24.415Z,2.55
2017-12-14T11:01:24.685Z,2.51
2017-12-14T11:02:24.379Z,2.54
2017-12-14T11:03:24.090Z,2.51
2017-12-14T11:04:24.079Z,2.55
2017-12-14T11:05:24.338Z,2.47
2017-12-14T11:06:24.041Z,2.55
2017-12-14T11:07:24.296Z,2.54
2017-12-14T11:08:24.014Z,2.48
2017-12-14T11:09:23.998Z,2.52
2017-12-14T11:10:23.973Z,2.51
2017-12-14T11:11:23.960Z,2.6
2017-12-14T11:12:23.940Z,2.58
2017-12-14T11:13:24.548Z,2.72
2017-12-14T11:14:24.179Z,2.69
2017-12-14T11:15:24.180Z,2.78
2017-12-14T11:16:23.876Z,2.69
2017-12-14T11:17:23.858Z,2.67
2017-12-14T11:18:23.865Z,2.62
2017-12-14T11:19:23.829Z,2.69
2017-12-14T11:20:23.809Z,2.59
2017-12-14T11:21:23.814Z,2.55
2017-12-14T11:22:24.050Z,2.59
2017-12-14T11:23:24.030Z,2.54
2017-12-14T11:24:23.758Z,2.59
2017-12-14T11:25:23.994Z,2.7
2017-12-14T11:26:23.711Z,2.72
2017-12-14T11:27:24.261Z,2.72
2017-12-14T11:28:23.949Z,2.7
2017-12-14T11:29:23.662Z,2.76
2017-12-14T11:30:23.923Z,2.73
2017-12-14T11:31:23.897Z,2.7
2017-12-14T11:32:23.884Z,2.76
2017-12-14T11:33:23.608Z,2.76
2017-12-14T11:34:23.585Z,2.81
2017-12-14T11:35:23.838Z,2.83
2017-12-14T11:36:23.568Z,2.81
2017-12-14T11:37:23.801Z,2.84
2017-12-14T11:38:24.100Z,2.84
2017-12-14T11:39:23.494Z,2.9
2017-12-14T11:40:23.770Z,2.83
2017-12-14T11:41:23.463Z,2.8
2017-12-14T11:42:23.720Z,2.8
2017-12-14T11:43:23.430Z,2.8
2017-12-14T11:44:23.715Z,2.73
2017-12-14T11:45:23.698Z,2.76
2017-12-14T11:46:23.658Z,2.76
2017-12-14T11:47:23.383Z,2.69
2017-12-14T11:48:23.897Z,2.67
2017-12-14T11:49:23.613Z,2.66
2017-12-14T11:50:23.315Z,2.63
2017-12-14T11:51:23.572Z,2.7
2017-12-14T11:52:23.565Z,2.7
2017-12-14T11:53:23.265Z,2.67
2017-12-14T11:54:23.522Z,2.59
2017-12-14T11:55:23.533Z,2.67
2017-12-14T11:56:23.489Z,2.69
2017-12-14T11:57:23.297Z,2.67
2017-12-14T11:58:23.450Z,2.69
2017-12-14T11:59:23.437Z,2.59
2017-12-14T12:00:23.147Z,2.63
2017-12-14T12:01:23.134Z,2.66
2017-12-14T12:02:23.116Z,2.76
2017-12-14T12:03:23.114Z,2.76
2017-12-14T12:04:23.357Z,2.83
2017-12-14T12:05:23.356Z,2.84
2017-12-14T12:06:23.613Z,2.85
2017-12-14T12:07:23.032Z,2.9
2017-12-14T12:08:23.563Z,2.93
2017-12-14T12:09:23.000Z,2.99
2017-12-14T12:10:23.608Z,3.03
2017-12-14T12:11:23.247Z,3.03
2017-12-14T12:12:22.951Z,3.19
2017-12-14T12:13:23.209Z,3.19
2017-12-14T12:14:23.462Z,3.21
2017-12-14T12:15:23.246Z,3.21
2017-12-14T12:16:23.227Z,3.26
2017-12-14T12:17:23.171Z,3.2
2017-12-14T12:18:23.410Z,3.32
2017-12-14T12:19:23.114Z,3.34
2017-12-14T12:20:23.089Z,3.42
2017-12-14T12:21:22.805Z,3.43
2017-12-14T12:22:22.790Z,3.39
2017-12-14T12:23:22.785Z,3.35
2017-12-14T12:24:23.029Z,3.39
2017-12-14T12:25:23.290Z,3.4
2017-12-14T12:26:23.038Z,3.45
2017-12-14T12:27:23.255Z,3.35
2017-12-14T12:28:22.984Z,3.45
2017-12-14T12:29:22.964Z,3.4
2017-12-14T12:30:22.933Z,3.42
2017-12-14T12:31:22.651Z,3.29
2017-12-14T12:32:22.746Z,3.3
2017-12-14T12:33:22.612Z,3.32
2017-12-14T12:34:22.893Z,3.45
2017-12-14T12:35:22.854Z,3.45
2017-12-14T12:36:22.835Z,3.42
2017-12-14T12:37:22.823Z,3.2
2017-12-14T12:38:22.533Z,3.27
2017-12-14T12:39:22.786Z,3.23
2017-12-14T12:40:22.498Z,3.13
2017-12-14T12:41:22.765Z,3.06
2017-12-14T12:42:22.670Z,3.06
2017-12-14T12:43:22.474Z,2.9
2017-12-14T12:44:22.705Z,2.96
2017-12-14T12:45:22.419Z,2.88
2017-12-14T12:46:22.408Z,2.95
2017-12-14T12:47:22.385Z,2.87
2017-12-14T12:48:22.693Z,2.83
2017-12-14T12:49:22.355Z,2.8
2017-12-14T12:50:22.342Z,2.88
2017-12-14T12:51:22.344Z,2.84
2017-12-14T12:52:22.311Z,2.8
2017-12-14T12:53:22.565Z,2.84
2017-12-14T12:54:22.553Z,2.96
2017-12-14T12:55:22.540Z,2.88
2017-12-14T12:56:22.243Z,2.88
2017-12-14T12:57:22.494Z,2.87
2017-12-14T12:58:22.483Z,2.87
2017-12-14T12:59:22.192Z,2.83
2017-12-14T13:00:22.449Z,2.9
2017-12-14T13:01:22.158Z,2.84
2017-12-14T13:02:22.427Z,2.85
2017-12-14T13:03:22.398Z,2.8
2017-12-14T13:04:22.113Z,2.84
2017-12-14T13:05:22.364Z,2.83
2017-12-14T13:06:22.627Z,2.73
2017-12-14T13:07:22.360Z,2.7
2017-12-14T13:08:22.317Z,2.81
2017-12-14T13:09:22.033Z,2.72
2017-12-14T13:10:22.552Z,2.72
2017-12-14T13:11:21.995Z,2.78
2017-12-14T13:12:22.525Z,2.85
2017-12-14T13:13:22.507Z,2.8
2017-12-14T13:14:21.993Z,2.98
2017-12-14T13:15:22.201Z,2.99
2017-12-14T13:16:21.911Z,3.03
2017-12-14T13:17:22.440Z,2.93
2017-12-14T13:18:22.431Z,3.08
2017-12-14T13:19:22.137Z,3.09
2017-12-14T13:20:21.858Z,3.19
2017-12-14T13:21:22.100Z,3.16